sensor_id;sensor_type;location;lat;lon;timestamp;temperature;humidity
20658;DHT22;10488;50.846;4.078;2023-05-10T00:00:08;13.60;99.90
20658;DHT22;10488;50.846;4.078;2023-05-10T00:02:34;13.70;99.90
20658;DHT22;10488;50.846;4.078;2023-05-10T00:05:00;13.60;99.90
20658;DHT22;10488;50.846;4.078;2023-05-10T00:07:26;13.50;99.90
20658;DHT22;10488;50.846;4.078;2023-05-10T00:09:52;13.40;99.90
20658;DHT22;10488;50.846;4.078;2023-05-10T00:12:18;13.50;99.90
20658;DHT22;10488;50.846;4.078;2023-05-10T00:14:43;13.60;99.90
20658;DHT22;10488;50.846;4.078;2023-05-10T00:17:09;13.70;99.90
20658;DHT22;10488;50.846;4.078;2023-05-10T00:19:35;13.60;99.90
20658;DHT22;10488;50.846;4.078;2023-05-10T00:22:00;13.50;99.90
20658;DHT22;10488;50.846;4.078;2023-05-10T00:24:27;13.50;99.90
20658;DHT22;10488;50.846;4.078;2023-05-10T00:26:52;13.50;99.90
20658;DHT22;10488;50.846;4.078;2023-05-10T00:29:18;13.30;99.90
20658;DHT22;10488;50.846;4.078;2023-05-10T00:31:44;13.40;99.90
20658;DHT22;10488;50.846;4.078;2023-05-10T00:34:09;13.30;99.90
20658;DHT22;10488;50.846;4.078;2023-05-10T00:36:35;13.20;99.90
20658;DHT22;10488;50.846;4.078;2023-05-10T00:39:01;13.10;99.90
20658;DHT22;10488;50.846;4.078;2023-05-10T00:41:29;13.20;99.90
20658;DHT22;10488;50.846;4.078;2023-05-10T00:43:57;13.10;99.90
20658;DHT22;10488;50.846;4.078;2023-05-10T00:46:22;13.20;99.90
20658;DHT22;10488;50.846;4.078;2023-05-10T00:48:48;13.30;99.90
20658;DHT22;10488;50.846;4.078;2023-05-10T00:51:14;13.40;99.90
20658;DHT22;10488;50.846;4.078;2023-05-10T00:53:40;13.30;99.90
20658;DHT22;10488;50.846;4.078;2023-05-10T00:56:06;13.40;99.90
20658;DHT22;10488;50.846;4.078;2023-05-10T00:58:32;13.40;99.90
20658;DHT22;10488;50.846;4.078;2023-05-10T01:00:58;13.40;99.90
20658;DHT22;10488;50.846;4.078;2023-05-10T01:03:25;13.60;99.90
20658;DHT22;10488;50.846;4.078;2023-05-10T01:05:51;13.60;99.90
20658;DHT22;10488;50.846;4.078;2023-05-10T01:08:17;13.50;99.90
20658;DHT22;10488;50.846;4.078;2023-05-10T01:10:44;13.40;99.90
20658;DHT22;10488;50.846;4.078;2023-05-10T01:13:11;13.30;99.90
20658;DHT22;10488;50.846;4.078;2023-05-10T01:15:38;13.20;99.90
20658;DHT22;10488;50.846;4.078;2023-05-10T01:18:04;13.30;99.90
20658;DHT22;10488;50.846;4.078;2023-05-10T01:20:35;13.30;99.90
20658;DHT22;10488;50.846;4.078;2023-05-10T01:34:52;13.20;99.90
20658;DHT22;10488;50.846;4.078;2023-05-10T01:37:24;13.20;99.90
20658;DHT22;10488;50.846;4.078;2023-05-10T01:43:05;13.40;99.90
20658;DHT22;10488;50.846;4.078;2023-05-10T01:46:20;13.50;99.90
20658;DHT22;10488;50.846;4.078;2023-05-10T01:48:26;13.30;99.90
20658;DHT22;10488;50.846;4.078;2023-05-10T01:50:53;13.40;99.90
20658;DHT22;10488;50.846;4.078;2023-05-10T01:53:21;13.50;99.90
20658;DHT22;10488;50.846;4.078;2023-05-10T01:55:50;13.50;99.90
20658;DHT22;10488;50.846;4.078;2023-05-10T01:58:28;13.60;99.90
20658;DHT22;10488;50.846;4.078;2023-05-10T02:00:55;13.70;99.90
20658;DHT22;10488;50.846;4.078;2023-05-10T02:03:24;13.80;99.90
20658;DHT22;10488;50.846;4.078;2023-05-10T02:05:52;13.70;99.90
20658;DHT22;10488;50.846;4.078;2023-05-10T02:08:19;13.60;99.90
20658;DHT22;10488;50.846;4.078;2023-05-10T02:10:46;13.60;99.90
20658;DHT22;10488;50.846;4.078;2023-05-10T02:13:14;13.60;99.90
20658;DHT22;10488;50.846;4.078;2023-05-10T02:15:41;13.70;99.90
20658;DHT22;10488;50.846;4.078;2023-05-10T02:18:09;13.60;99.90
20658;DHT22;10488;50.846;4.078;2023-05-10T02:20:37;13.60;99.90
20658;DHT22;10488;50.846;4.078;2023-05-10T02:23:03;13.60;99.90
20658;DHT22;10488;50.846;4.078;2023-05-10T02:25:30;13.70;99.90
20658;DHT22;10488;50.846;4.078;2023-05-10T02:27:57;13.80;99.90
20658;DHT22;10488;50.846;4.078;2023-05-10T02:30:26;13.80;99.90
20658;DHT22;10488;50.846;4.078;2023-05-10T02:32:52;13.90;99.90
20658;DHT22;10488;50.846;4.078;2023-05-10T02:35:18;13.90;99.90
20658;DHT22;10488;50.846;4.078;2023-05-10T02:37:45;13.70;99.90
20658;DHT22;10488;50.846;4.078;2023-05-10T02:40:13;13.90;99.90
20658;DHT22;10488;50.846;4.078;2023-05-10T02:42:42;14.00;99.90
20658;DHT22;10488;50.846;4.078;2023-05-10T02:45:12;14.00;99.90
20658;DHT22;10488;50.846;4.078;2023-05-10T02:47:40;14.00;99.90
20658;DHT22;10488;50.846;4.078;2023-05-10T02:50:06;14.10;99.90
20658;DHT22;10488;50.846;4.078;2023-05-10T02:52:51;13.90;99.90
20658;DHT22;10488;50.846;4.078;2023-05-10T02:55:21;13.90;99.90
20658;DHT22;10488;50.846;4.078;2023-05-10T02:57:58;14.10;99.90
20658;DHT22;10488;50.846;4.078;2023-05-10T03:00:24;14.30;99.90
20658;DHT22;10488;50.846;4.078;2023-05-10T03:02:50;14.30;99.90
20658;DHT22;10488;50.846;4.078;2023-05-10T03:05:16;14.30;99.90
20658;DHT22;10488;50.846;4.078;2023-05-10T03:07:42;14.40;99.90
20658;DHT22;10488;50.846;4.078;2023-05-10T03:10:09;14.00;99.90
20658;DHT22;10488;50.846;4.078;2023-05-10T03:16:14;13.80;99.90
20658;DHT22;10488;50.846;4.078;2023-05-10T03:21:12;13.70;99.90
20658;DHT22;10488;50.846;4.078;2023-05-10T03:23:46;13.90;99.90
20658;DHT22;10488;50.846;4.078;2023-05-10T03:26:23;13.90;99.90
20658;DHT22;10488;50.846;4.078;2023-05-10T03:28:52;13.90;99.90
20658;DHT22;10488;50.846;4.078;2023-05-10T03:31:18;13.70;99.90
20658;DHT22;10488;50.846;4.078;2023-05-10T03:33:48;13.90;99.90
20658;DHT22;10488;50.846;4.078;2023-05-10T03:36:13;13.90;99.90
20658;DHT22;10488;50.846;4.078;2023-05-10T03:38:39;13.90;99.90
20658;DHT22;10488;50.846;4.078;2023-05-10T03:41:05;14.00;99.90
20658;DHT22;10488;50.846;4.078;2023-05-10T03:43:31;14.00;99.90
20658;DHT22;10488;50.846;4.078;2023-05-10T03:45:56;14.00;99.90
20658;DHT22;10488;50.846;4.078;2023-05-10T03:48:22;14.10;99.90
20658;DHT22;10488;50.846;4.078;2023-05-10T03:50:47;14.10;99.90
20658;DHT22;10488;50.846;4.078;2023-05-10T03:53:15;14.10;99.90
20658;DHT22;10488;50.846;4.078;2023-05-10T03:55:41;13.90;99.90
20658;DHT22;10488;50.846;4.078;2023-05-10T03:58:06;13.90;99.90
20658;DHT22;10488;50.846;4.078;2023-05-10T04:00:32;14.00;99.90
20658;DHT22;10488;50.846;4.078;2023-05-10T04:02:58;14.00;99.90
20658;DHT22;10488;50.846;4.078;2023-05-10T04:05:24;13.90;99.90
20658;DHT22;10488;50.846;4.078;2023-05-10T04:07:49;13.90;99.90
20658;DHT22;10488;50.846;4.078;2023-05-10T04:10:16;13.80;99.90
20658;DHT22;10488;50.846;4.078;2023-05-10T04:12:42;13.80;99.90
20658;DHT22;10488;50.846;4.078;2023-05-10T04:15:08;13.70;99.90
20658;DHT22;10488;50.846;4.078;2023-05-10T04:17:34;13.60;99.90
20658;DHT22;10488;50.846;4.078;2023-05-10T04:19:59;13.60;99.90
20658;DHT22;10488;50.846;4.078;2023-05-10T04:22:25;13.70;99.90
20658;DHT22;10488;50.846;4.078;2023-05-10T04:24:51;13.70;99.90
20658;DHT22;10488;50.846;4.078;2023-05-10T04:27:16;13.40;99.90
20658;DHT22;10488;50.846;4.078;2023-05-10T04:29:42;13.40;99.90
20658;DHT22;10488;50.846;4.078;2023-05-10T04:32:08;13.40;99.90
20658;DHT22;10488;50.846;4.078;2023-05-10T04:34:36;13.50;99.90
20658;DHT22;10488;50.846;4.078;2023-05-10T04:37:01;13.40;99.90
20658;DHT22;10488;50.846;4.078;2023-05-10T04:39:27;13.40;99.90
20658;DHT22;10488;50.846;4.078;2023-05-10T04:41:52;13.40;99.90
20658;DHT22;10488;50.846;4.078;2023-05-10T04:44:18;13.40;99.90
20658;DHT22;10488;50.846;4.078;2023-05-10T04:46:44;13.30;99.90
20658;DHT22;10488;50.846;4.078;2023-05-10T04:49:09;13.30;99.90
20658;DHT22;10488;50.846;4.078;2023-05-10T04:51:35;13.30;99.90
20658;DHT22;10488;50.846;4.078;2023-05-10T04:54:01;13.20;99.90
20658;DHT22;10488;50.846;4.078;2023-05-10T04:56:26;13.20;99.90
20658;DHT22;10488;50.846;4.078;2023-05-10T04:58:52;13.30;99.90
20658;DHT22;10488;50.846;4.078;2023-05-10T05:01:18;13.50;99.90
20658;DHT22;10488;50.846;4.078;2023-05-10T05:03:43;13.40;99.90
20658;DHT22;10488;50.846;4.078;2023-05-10T05:06:09;13.50;99.90
20658;DHT22;10488;50.846;4.078;2023-05-10T05:08:35;13.60;99.90
20658;DHT22;10488;50.846;4.078;2023-05-10T05:11:00;13.60;99.90
20658;DHT22;10488;50.846;4.078;2023-05-10T05:13:26;13.50;99.90
20658;DHT22;10488;50.846;4.078;2023-05-10T05:15:52;13.50;99.90
20658;DHT22;10488;50.846;4.078;2023-05-10T05:18:17;13.30;99.90
20658;DHT22;10488;50.846;4.078;2023-05-10T05:20:43;13.40;99.90
20658;DHT22;10488;50.846;4.078;2023-05-10T05:23:09;13.30;99.90
20658;DHT22;10488;50.846;4.078;2023-05-10T05:25:34;13.30;99.90
20658;DHT22;10488;50.846;4.078;2023-05-10T05:28:00;13.20;99.90
20658;DHT22;10488;50.846;4.078;2023-05-10T05:30:26;13.10;99.90
20658;DHT22;10488;50.846;4.078;2023-05-10T05:32:52;13.10;99.90
20658;DHT22;10488;50.846;4.078;2023-05-10T05:35:18;13.00;99.90
20658;DHT22;10488;50.846;4.078;2023-05-10T05:37:44;13.20;99.90
20658;DHT22;10488;50.846;4.078;2023-05-10T05:40:13;13.20;99.90
20658;DHT22;10488;50.846;4.078;2023-05-10T05:42:39;13.30;99.90
20658;DHT22;10488;50.846;4.078;2023-05-10T05:45:05;13.30;99.90
20658;DHT22;10488;50.846;4.078;2023-05-10T05:47:31;13.20;99.90
20658;DHT22;10488;50.846;4.078;2023-05-10T05:49:56;13.10;99.90
20658;DHT22;10488;50.846;4.078;2023-05-10T05:52:22;13.30;99.90
20658;DHT22;10488;50.846;4.078;2023-05-10T05:54:47;13.40;99.90
20658;DHT22;10488;50.846;4.078;2023-05-10T05:57:13;13.50;99.90
20658;DHT22;10488;50.846;4.078;2023-05-10T05:59:39;13.30;99.90
20658;DHT22;10488;50.846;4.078;2023-05-10T06:02:09;13.40;99.90
20658;DHT22;10488;50.846;4.078;2023-05-10T06:04:35;13.50;99.90
20658;DHT22;10488;50.846;4.078;2023-05-10T06:07:00;13.50;99.90
20658;DHT22;10488;50.846;4.078;2023-05-10T06:09:26;13.30;99.90
20658;DHT22;10488;50.846;4.078;2023-05-10T06:11:52;13.40;99.90
20658;DHT22;10488;50.846;4.078;2023-05-10T06:14:19;13.60;99.90
20658;DHT22;10488;50.846;4.078;2023-05-10T06:16:48;13.50;99.90
20658;DHT22;10488;50.846;4.078;2023-05-10T06:19:14;13.60;99.90
20658;DHT22;10488;50.846;4.078;2023-05-10T06:21:40;13.70;99.90
20658;DHT22;10488;50.846;4.078;2023-05-10T06:24:06;13.70;99.90
20658;DHT22;10488;50.846;4.078;2023-05-10T06:26:32;13.80;99.90
20658;DHT22;10488;50.846;4.078;2023-05-10T06:28:58;13.80;99.90
20658;DHT22;10488;50.846;4.078;2023-05-10T06:31:24;13.80;99.90
20658;DHT22;10488;50.846;4.078;2023-05-10T06:33:49;13.80;99.90
20658;DHT22;10488;50.846;4.078;2023-05-10T06:36:15;13.80;99.90
20658;DHT22;10488;50.846;4.078;2023-05-10T06:38:40;13.60;99.90
20658;DHT22;10488;50.846;4.078;2023-05-10T06:41:06;13.50;99.90
20658;DHT22;10488;50.846;4.078;2023-05-10T06:43:32;13.60;99.90
20658;DHT22;10488;50.846;4.078;2023-05-10T06:45:58;13.60;99.90
20658;DHT22;10488;50.846;4.078;2023-05-10T06:48:23;13.60;99.90
20658;DHT22;10488;50.846;4.078;2023-05-10T06:50:49;13.70;99.90
20658;DHT22;10488;50.846;4.078;2023-05-10T06:53:15;13.60;99.90
20658;DHT22;10488;50.846;4.078;2023-05-10T06:55:41;13.60;99.90
20658;DHT22;10488;50.846;4.078;2023-05-10T06:58:06;13.70;99.90
20658;DHT22;10488;50.846;4.078;2023-05-10T07:00:32;13.60;99.90
20658;DHT22;10488;50.846;4.078;2023-05-10T07:02:58;13.50;99.90
20658;DHT22;10488;50.846;4.078;2023-05-10T07:05:24;13.40;99.90
20658;DHT22;10488;50.846;4.078;2023-05-10T07:07:50;13.20;99.90
20658;DHT22;10488;50.846;4.078;2023-05-10T07:10:15;13.20;99.90
20658;DHT22;10488;50.846;4.078;2023-05-10T07:12:41;13.00;99.90
20658;DHT22;10488;50.846;4.078;2023-05-10T07:15:07;13.00;99.90
20658;DHT22;10488;50.846;4.078;2023-05-10T07:17:33;12.80;99.90
20658;DHT22;10488;50.846;4.078;2023-05-10T07:19:59;13.00;99.90
20658;DHT22;10488;50.846;4.078;2023-05-10T07:22:25;13.20;99.90
20658;DHT22;10488;50.846;4.078;2023-05-10T07:24:51;13.10;99.90
20658;DHT22;10488;50.846;4.078;2023-05-10T07:27:17;13.10;99.90
20658;DHT22;10488;50.846;4.078;2023-05-10T07:29:42;13.10;99.90
20658;DHT22;10488;50.846;4.078;2023-05-10T07:32:08;13.10;99.90
20658;DHT22;10488;50.846;4.078;2023-05-10T07:34:34;13.10;99.90
20658;DHT22;10488;50.846;4.078;2023-05-10T07:37:00;12.90;99.90
20658;DHT22;10488;50.846;4.078;2023-05-10T07:39:27;12.80;99.90
20658;DHT22;10488;50.846;4.078;2023-05-10T07:41:53;13.00;99.90
20658;DHT22;10488;50.846;4.078;2023-05-10T07:44:18;13.00;99.90
20658;DHT22;10488;50.846;4.078;2023-05-10T07:46:46;13.10;99.90
20658;DHT22;10488;50.846;4.078;2023-05-10T07:49:11;13.10;99.90
20658;DHT22;10488;50.846;4.078;2023-05-10T07:51:37;13.20;99.90
20658;DHT22;10488;50.846;4.078;2023-05-10T07:54:03;13.20;99.90
20658;DHT22;10488;50.846;4.078;2023-05-10T07:56:31;13.10;99.90
20658;DHT22;10488;50.846;4.078;2023-05-10T07:59:01;13.10;99.90
20658;DHT22;10488;50.846;4.078;2023-05-10T08:01:30;13.00;99.90
20658;DHT22;10488;50.846;4.078;2023-05-10T08:03:56;13.00;99.90
20658;DHT22;10488;50.846;4.078;2023-05-10T08:06:22;12.90;99.90
20658;DHT22;10488;50.846;4.078;2023-05-10T08:08:49;13.00;99.90
20658;DHT22;10488;50.846;4.078;2023-05-10T08:11:19;13.00;99.90
20658;DHT22;10488;50.846;4.078;2023-05-10T08:13:46;13.10;99.90
20658;DHT22;10488;50.846;4.078;2023-05-10T08:16:11;12.90;99.90
20658;DHT22;10488;50.846;4.078;2023-05-10T08:18:38;13.00;99.90
20658;DHT22;10488;50.846;4.078;2023-05-10T08:21:04;13.00;99.90
20658;DHT22;10488;50.846;4.078;2023-05-10T08:23:30;13.10;99.90
20658;DHT22;10488;50.846;4.078;2023-05-10T08:25:56;12.90;99.90
20658;DHT22;10488;50.846;4.078;2023-05-10T08:28:21;12.90;99.90
20658;DHT22;10488;50.846;4.078;2023-05-10T08:30:47;12.90;99.90
20658;DHT22;10488;50.846;4.078;2023-05-10T08:33:13;12.80;99.90
20658;DHT22;10488;50.846;4.078;2023-05-10T08:35:38;12.70;99.90
20658;DHT22;10488;50.846;4.078;2023-05-10T08:38:04;12.80;99.90
20658;DHT22;10488;50.846;4.078;2023-05-10T08:40:30;13.10;99.90
20658;DHT22;10488;50.846;4.078;2023-05-10T08:43:07;13.20;99.90
20658;DHT22;10488;50.846;4.078;2023-05-10T08:45:37;13.20;99.90
20658;DHT22;10488;50.846;4.078;2023-05-10T08:48:06;13.30;99.90
20658;DHT22;10488;50.846;4.078;2023-05-10T08:50:35;13.20;99.90
20658;DHT22;10488;50.846;4.078;2023-05-10T08:53:11;13.20;99.90
20658;DHT22;10488;50.846;4.078;2023-05-10T08:55:39;13.30;99.90
20658;DHT22;10488;50.846;4.078;2023-05-10T08:58:06;13.40;99.90
20658;DHT22;10488;50.846;4.078;2023-05-10T09:00:32;13.40;99.90
20658;DHT22;10488;50.846;4.078;2023-05-10T09:02:59;13.40;99.90
20658;DHT22;10488;50.846;4.078;2023-05-10T09:05:28;13.30;99.90
20658;DHT22;10488;50.846;4.078;2023-05-10T09:07:54;13.40;99.90
20658;DHT22;10488;50.846;4.078;2023-05-10T09:10:20;13.40;99.90
20658;DHT22;10488;50.846;4.078;2023-05-10T09:12:48;13.70;99.90
20658;DHT22;10488;50.846;4.078;2023-05-10T09:15:17;13.50;99.90
20658;DHT22;10488;50.846;4.078;2023-05-10T09:17:45;13.70;99.90
20658;DHT22;10488;50.846;4.078;2023-05-10T09:20:11;13.50;99.90
20658;DHT22;10488;50.846;4.078;2023-05-10T09:22:37;13.40;99.90
20658;DHT22;10488;50.846;4.078;2023-05-10T09:25:08;13.40;99.90
20658;DHT22;10488;50.846;4.078;2023-05-10T09:27:34;13.60;99.90
20658;DHT22;10488;50.846;4.078;2023-05-10T09:30:00;13.60;99.90
20658;DHT22;10488;50.846;4.078;2023-05-10T09:32:56;13.70;99.90
20658;DHT22;10488;50.846;4.078;2023-05-10T09:35:24;13.50;99.90
20658;DHT22;10488;50.846;4.078;2023-05-10T09:37:53;13.20;99.90
20658;DHT22;10488;50.846;4.078;2023-05-10T09:40:21;13.30;99.90
20658;DHT22;10488;50.846;4.078;2023-05-10T09:45:20;13.60;99.90
20658;DHT22;10488;50.846;4.078;2023-05-10T09:47:46;13.90;99.90
20658;DHT22;10488;50.846;4.078;2023-05-10T09:50:12;13.70;99.90
20658;DHT22;10488;50.846;4.078;2023-05-10T09:52:54;13.80;99.90
20658;DHT22;10488;50.846;4.078;2023-05-10T09:55:22;13.90;99.90
20658;DHT22;10488;50.846;4.078;2023-05-10T09:57:48;13.80;99.90
20658;DHT22;10488;50.846;4.078;2023-05-10T10:00:19;13.60;99.90
20658;DHT22;10488;50.846;4.078;2023-05-10T10:02:53;13.70;99.90
20658;DHT22;10488;50.846;4.078;2023-05-10T10:05:20;13.80;99.90
20658;DHT22;10488;50.846;4.078;2023-05-10T10:07:46;13.90;99.90
20658;DHT22;10488;50.846;4.078;2023-05-10T10:10:12;13.90;99.90
20658;DHT22;10488;50.846;4.078;2023-05-10T10:12:39;14.00;99.90
20658;DHT22;10488;50.846;4.078;2023-05-10T10:15:08;14.10;99.90
20658;DHT22;10488;50.846;4.078;2023-05-10T10:17:36;14.00;99.90
20658;DHT22;10488;50.846;4.078;2023-05-10T10:20:03;14.00;99.90
20658;DHT22;10488;50.846;4.078;2023-05-10T10:22:29;14.30;99.90
20658;DHT22;10488;50.846;4.078;2023-05-10T10:24:55;14.60;99.90
20658;DHT22;10488;50.846;4.078;2023-05-10T10:27:28;14.60;99.90
20658;DHT22;10488;50.846;4.078;2023-05-10T10:35:03;15.00;99.90
20658;DHT22;10488;50.846;4.078;2023-05-10T10:37:46;15.10;99.90
20658;DHT22;10488;50.846;4.078;2023-05-10T10:40:31;15.10;99.90
20658;DHT22;10488;50.846;4.078;2023-05-10T10:42:59;14.60;99.90
20658;DHT22;10488;50.846;4.078;2023-05-10T10:45:43;14.80;99.90
20658;DHT22;10488;50.846;4.078;2023-05-10T10:48:23;14.60;99.90
20658;DHT22;10488;50.846;4.078;2023-05-10T10:50:56;14.60;99.90
20658;DHT22;10488;50.846;4.078;2023-05-10T10:53:23;14.50;99.90
20658;DHT22;10488;50.846;4.078;2023-05-10T10:56:06;15.00;99.90
20658;DHT22;10488;50.846;4.078;2023-05-10T10:58:38;15.40;99.90
20658;DHT22;10488;50.846;4.078;2023-05-10T11:01:14;15.50;99.90
20658;DHT22;10488;50.846;4.078;2023-05-10T11:03:41;15.60;99.90
20658;DHT22;10488;50.846;4.078;2023-05-10T11:06:06;15.60;99.90
20658;DHT22;10488;50.846;4.078;2023-05-10T11:08:41;16.00;99.90
20658;DHT22;10488;50.846;4.078;2023-05-10T11:11:07;16.40;99.90
20658;DHT22;10488;50.846;4.078;2023-05-10T11:13:44;16.20;99.90
20658;DHT22;10488;50.846;4.078;2023-05-10T11:18:41;15.70;99.90
20658;DHT22;10488;50.846;4.078;2023-05-10T11:21:16;15.70;99.90
20658;DHT22;10488;50.846;4.078;2023-05-10T11:23:49;15.60;99.90
20658;DHT22;10488;50.846;4.078;2023-05-10T11:26:15;15.60;99.90
20658;DHT22;10488;50.846;4.078;2023-05-10T11:28:42;15.50;99.90
20658;DHT22;10488;50.846;4.078;2023-05-10T11:31:08;15.60;99.90
20658;DHT22;10488;50.846;4.078;2023-05-10T11:33:47;15.70;99.90
20658;DHT22;10488;50.846;4.078;2023-05-10T11:38:46;16.00;99.90
20658;DHT22;10488;50.846;4.078;2023-05-10T11:41:12;16.20;99.90
20658;DHT22;10488;50.846;4.078;2023-05-10T11:43:41;16.10;99.90
20658;DHT22;10488;50.846;4.078;2023-05-10T11:46:09;16.20;99.90
20658;DHT22;10488;50.846;4.078;2023-05-10T11:48:36;16.20;99.90
20658;DHT22;10488;50.846;4.078;2023-05-10T11:51:02;16.60;99.90
20658;DHT22;10488;50.846;4.078;2023-05-10T11:53:32;16.50;99.90
20658;DHT22;10488;50.846;4.078;2023-05-10T11:56:09;16.40;99.90
20658;DHT22;10488;50.846;4.078;2023-05-10T11:58:36;17.00;99.90
20658;DHT22;10488;50.846;4.078;2023-05-10T12:01:03;17.10;99.90
20658;DHT22;10488;50.846;4.078;2023-05-10T12:03:29;16.40;99.90
20658;DHT22;10488;50.846;4.078;2023-05-10T12:05:56;16.30;99.90
20658;DHT22;10488;50.846;4.078;2023-05-10T12:08:25;15.90;99.90
20658;DHT22;10488;50.846;4.078;2023-05-10T12:10:53;16.00;99.90
20658;DHT22;10488;50.846;4.078;2023-05-10T12:13:20;15.80;99.90
20658;DHT22;10488;50.846;4.078;2023-05-10T12:15:46;16.20;99.90
20658;DHT22;10488;50.846;4.078;2023-05-10T12:18:13;16.60;99.90
20658;DHT22;10488;50.846;4.078;2023-05-10T12:20:40;16.70;99.90
20658;DHT22;10488;50.846;4.078;2023-05-10T12:23:08;16.90;99.90
20658;DHT22;10488;50.846;4.078;2023-05-10T12:25:35;16.80;99.90
20658;DHT22;10488;50.846;4.078;2023-05-10T12:28:04;17.20;99.90
20658;DHT22;10488;50.846;4.078;2023-05-10T12:30:31;17.40;99.90
20658;DHT22;10488;50.846;4.078;2023-05-10T12:33:09;16.80;99.90
20658;DHT22;10488;50.846;4.078;2023-05-10T12:35:47;16.70;99.90
20658;DHT22;10488;50.846;4.078;2023-05-10T12:40:54;17.10;99.90
20658;DHT22;10488;50.846;4.078;2023-05-10T12:43:19;17.40;99.90
20658;DHT22;10488;50.846;4.078;2023-05-10T12:45:45;17.30;99.90
20658;DHT22;10488;50.846;4.078;2023-05-10T12:48:13;17.30;99.90
20658;DHT22;10488;50.846;4.078;2023-05-10T12:50:39;16.50;99.90
20658;DHT22;10488;50.846;4.078;2023-05-10T12:53:04;16.40;99.90
20658;DHT22;10488;50.846;4.078;2023-05-10T12:55:30;16.70;99.90
20658;DHT22;10488;50.846;4.078;2023-05-10T12:57:56;16.90;99.90
20658;DHT22;10488;50.846;4.078;2023-05-10T13:00:22;16.70;99.90
20658;DHT22;10488;50.846;4.078;2023-05-10T13:02:48;16.70;99.90
20658;DHT22;10488;50.846;4.078;2023-05-10T13:05:13;16.30;99.90
20658;DHT22;10488;50.846;4.078;2023-05-10T13:07:39;16.30;99.90
20658;DHT22;10488;50.846;4.078;2023-05-10T13:10:06;16.60;99.90
20658;DHT22;10488;50.846;4.078;2023-05-10T13:12:32;17.00;99.90
20658;DHT22;10488;50.846;4.078;2023-05-10T13:14:58;17.10;99.90
20658;DHT22;10488;50.846;4.078;2023-05-10T13:17:25;17.50;99.90
20658;DHT22;10488;50.846;4.078;2023-05-10T13:19:51;17.60;99.90
20658;DHT22;10488;50.846;4.078;2023-05-10T13:22:16;17.90;99.90
20658;DHT22;10488;50.846;4.078;2023-05-10T13:24:43;17.00;99.90
20658;DHT22;10488;50.846;4.078;2023-05-10T13:27:08;17.50;99.90
20658;DHT22;10488;50.846;4.078;2023-05-10T13:29:34;17.70;99.90
20658;DHT22;10488;50.846;4.078;2023-05-10T13:32:00;17.70;99.90
20658;DHT22;10488;50.846;4.078;2023-05-10T13:34:26;17.80;99.90
20658;DHT22;10488;50.846;4.078;2023-05-10T13:36:53;17.80;99.90
20658;DHT22;10488;50.846;4.078;2023-05-10T13:39:20;17.30;99.90
20658;DHT22;10488;50.846;4.078;2023-05-10T13:41:46;17.20;99.90
20658;DHT22;10488;50.846;4.078;2023-05-10T13:44:14;17.40;99.90
20658;DHT22;10488;50.846;4.078;2023-05-10T13:46:41;17.30;99.90
20658;DHT22;10488;50.846;4.078;2023-05-10T13:49:08;17.10;99.90
20658;DHT22;10488;50.846;4.078;2023-05-10T13:51:34;17.20;99.90
20658;DHT22;10488;50.846;4.078;2023-05-10T13:54:01;17.00;99.90
20658;DHT22;10488;50.846;4.078;2023-05-10T13:56:27;17.30;99.90
20658;DHT22;10488;50.846;4.078;2023-05-10T13:58:53;17.20;99.90
20658;DHT22;10488;50.846;4.078;2023-05-10T14:01:18;17.30;99.90
20658;DHT22;10488;50.846;4.078;2023-05-10T14:03:44;17.00;99.90
20658;DHT22;10488;50.846;4.078;2023-05-10T14:06:10;17.00;99.90
20658;DHT22;10488;50.846;4.078;2023-05-10T14:08:36;17.00;99.90
20658;DHT22;10488;50.846;4.078;2023-05-10T14:11:02;16.60;99.90
20658;DHT22;10488;50.846;4.078;2023-05-10T14:13:27;16.60;99.90
20658;DHT22;10488;50.846;4.078;2023-05-10T14:15:54;16.90;99.90
20658;DHT22;10488;50.846;4.078;2023-05-10T14:18:20;17.00;99.90
20658;DHT22;10488;50.846;4.078;2023-05-10T14:20:46;16.70;99.90
20658;DHT22;10488;50.846;4.078;2023-05-10T14:23:12;16.40;99.90
20658;DHT22;10488;50.846;4.078;2023-05-10T14:25:40;16.20;99.90
20658;DHT22;10488;50.846;4.078;2023-05-10T14:28:06;16.30;99.90
20658;DHT22;10488;50.846;4.078;2023-05-10T14:30:31;15.90;99.90
20658;DHT22;10488;50.846;4.078;2023-05-10T14:32:58;15.80;99.90
20658;DHT22;10488;50.846;4.078;2023-05-10T14:35:24;15.60;99.90
20658;DHT22;10488;50.846;4.078;2023-05-10T14:37:49;15.50;99.90
20658;DHT22;10488;50.846;4.078;2023-05-10T14:40:15;15.50;99.90
20658;DHT22;10488;50.846;4.078;2023-05-10T14:42:42;15.50;99.90
20658;DHT22;10488;50.846;4.078;2023-05-10T14:45:09;15.50;99.90
20658;DHT22;10488;50.846;4.078;2023-05-10T14:47:35;15.30;99.90
20658;DHT22;10488;50.846;4.078;2023-05-10T14:50:00;15.30;99.90
20658;DHT22;10488;50.846;4.078;2023-05-10T14:52:26;15.40;99.90
20658;DHT22;10488;50.846;4.078;2023-05-10T14:54:53;15.30;99.90
20658;DHT22;10488;50.846;4.078;2023-05-10T14:57:18;15.50;99.90
20658;DHT22;10488;50.846;4.078;2023-05-10T14:59:44;15.40;99.90
20658;DHT22;10488;50.846;4.078;2023-05-10T15:02:10;15.50;99.90
20658;DHT22;10488;50.846;4.078;2023-05-10T15:04:36;15.50;99.90
20658;DHT22;10488;50.846;4.078;2023-05-10T15:07:02;15.60;99.90
20658;DHT22;10488;50.846;4.078;2023-05-10T15:09:28;15.60;99.90
20658;DHT22;10488;50.846;4.078;2023-05-10T15:11:54;15.70;99.90
20658;DHT22;10488;50.846;4.078;2023-05-10T15:14:20;15.50;99.90
20658;DHT22;10488;50.846;4.078;2023-05-10T15:16:45;15.20;99.90
20658;DHT22;10488;50.846;4.078;2023-05-10T15:19:12;15.60;99.90
20658;DHT22;10488;50.846;4.078;2023-05-10T15:21:37;15.70;99.90
20658;DHT22;10488;50.846;4.078;2023-05-10T15:24:08;15.70;99.90
20658;DHT22;10488;50.846;4.078;2023-05-10T15:26:34;15.60;99.90
20658;DHT22;10488;50.846;4.078;2023-05-10T15:28:59;15.60;99.90
20658;DHT22;10488;50.846;4.078;2023-05-10T15:31:25;15.70;99.90
20658;DHT22;10488;50.846;4.078;2023-05-10T15:33:57;15.70;99.90
20658;DHT22;10488;50.846;4.078;2023-05-10T15:36:23;15.70;99.90
20658;DHT22;10488;50.846;4.078;2023-05-10T15:38:49;15.40;99.90
20658;DHT22;10488;50.846;4.078;2023-05-10T15:41:14;15.30;99.90
20658;DHT22;10488;50.846;4.078;2023-05-10T15:43:40;15.50;99.90
20658;DHT22;10488;50.846;4.078;2023-05-10T15:46:06;15.40;99.90
20658;DHT22;10488;50.846;4.078;2023-05-10T15:48:32;15.50;99.90
20658;DHT22;10488;50.846;4.078;2023-05-10T15:50:57;15.70;99.90
20658;DHT22;10488;50.846;4.078;2023-05-10T15:53:23;16.10;99.90
20658;DHT22;10488;50.846;4.078;2023-05-10T15:55:48;16.30;99.90
20658;DHT22;10488;50.846;4.078;2023-05-10T15:58:14;16.50;99.90
20658;DHT22;10488;50.846;4.078;2023-05-10T16:00:40;16.70;99.90
20658;DHT22;10488;50.846;4.078;2023-05-10T16:03:07;16.60;99.90
20658;DHT22;10488;50.846;4.078;2023-05-10T16:05:32;16.50;99.90